Time;durP1;ratioP1;P1;durP2;ratioP2;P2;SDS_P1;SDS_P2;PMS_P1;PMS_P2;Temp;Humidity;BMP_temperature;BMP_pressure;BME280_temperature;BME280_humidity;BME280_pressure;Samples;Min_cycle;Max_cycle;Signal;HPM_P1;HPM_P2
2021/01/28 00:01:45;;;;;;;6.10;5.33;;;4.10;64.40;;;;;;5063168;28;39374;-76
2021/01/28 00:04:12;;;;;;;6.50;4.87;;;4.10;64.40;;;;;;5070373;28;39045;-76
2021/01/28 00:06:39;;;;;;;6.20;4.83;;;4.10;64.30;;;;;;5071396;28;37186;-77
2021/01/28 00:09:08;;;;;;;6.00;4.80;;;4.10;64.30;;;;;;5069898;28;39592;-76
2021/01/28 00:11:35;;;;;;;5.17;4.57;;;4.10;64.00;;;;;;5066933;28;40301;-74
2021/01/28 00:14:03;;;;;;;4.53;4.00;;;4.20;63.80;;;;;;5071173;28;38666;-75
2021/01/28 00:16:32;;;;;;;5.67;4.40;;;4.10;63.80;;;;;;5073529;28;36874;-75
2021/01/28 00:18:59;;;;;;;5.17;4.67;;;4.10;63.60;;;;;;5069399;28;39138;-75
2021/01/28 00:21:26;;;;;;;5.90;4.27;;;4.10;63.60;;;;;;5073709;28;38563;-75
2021/01/28 00:23:53;;;;;;;5.70;5.10;;;4.10;63.40;;;;;;5070428;28;37125;-75
2021/01/28 00:26:22;;;;;;;7.70;4.93;;;4.10;63.40;;;;;;5071238;28;36657;-75
2021/01/28 00:28:52;;;;;;;5.97;4.67;;;4.00;63.30;;;;;;5081573;28;39576;-77
2021/01/28 00:31:20;;;;;;;5.37;4.60;;;4.00;63.20;;;;;;5069575;28;38024;-76
2021/01/28 00:33:47;;;;;;;6.47;5.00;;;3.90;63.00;;;;;;5071827;28;37032;-75
2021/01/28 00:36:13;;;;;;;5.03;4.33;;;3.80;63.20;;;;;;5070360;28;37565;-76
2021/01/28 00:38:41;;;;;;;6.10;4.60;;;3.80;63.30;;;;;;5071524;28;39504;-75
2021/01/28 00:41:10;;;;;;;5.70;4.70;;;3.80;63.40;;;;;;5064594;28;38954;-76
2021/01/28 00:43:37;;;;;;;11.33;5.30;;;3.70;63.30;;;;;;5083415;28;37125;-75
2021/01/28 00:46:05;;;;;;;6.87;4.60;;;3.70;63.30;;;;;;5070126;28;37573;-76
2021/01/28 00:48:33;;;;;;;4.57;4.17;;;3.60;63.40;;;;;;5069447;28;39114;-75
2021/01/28 00:51:04;;;;;;;5.90;5.00;;;3.70;63.70;;;;;;5078093;28;37791;-75
2021/01/28 00:53:32;;;;;;;7.37;5.50;;;3.70;63.80;;;;;;5063727;28;39209;-78
2021/01/28 00:55:59;;;;;;;6.97;5.10;;;3.70;63.90;;;;;;5063254;28;35774;-75
2021/01/28 00:58:36;;;;;;;8.20;5.20;;;3.80;64.10;;;;;;5068861;28;38191;-75
2021/01/28 01:01:04;;;;;;;6.10;5.17;;;3.80;64.90;;;;;;5062394;28;38574;-76
2021/01/28 01:03:32;;;;;;;7.63;5.50;;;3.80;64.30;;;;;;5064874;28;37153;-75
2021/01/28 01:05:59;;;;;;;6.77;5.37;;;3.80;64.30;;;;;;5065794;28;38078;-75
2021/01/28 01:08:28;;;;;;;6.17;4.83;;;3.80;64.30;;;;;;5062459;28;40006;-75
2021/01/28 01:11:02;;;;;;;8.37;6.37;;;3.80;64.20;;;;;;5065435;28;38489;-75
2021/01/28 01:13:31;;;;;;;5.40;4.87;;;3.80;64.10;;;;;;5059533;28;39024;-77
2021/01/28 01:16:12;;;;;;;6.73;4.63;;;3.90;64.40;;;;;;5064369;28;36815;-76
2021/01/28 01:18:44;;;;;;;5.17;4.30;;;3.90;64.10;;;;;;5060188;28;38601;-75
2021/01/28 01:21:14;;;;;;;6.40;4.47;;;3.90;63.90;;;;;;5068804;28;37705;-75
2021/01/28 01:23:44;;;;;;;5.80;4.50;;;3.90;63.70;;;;;;5079377;28;37016;-75
2021/01/28 01:26:17;;;;;;;4.93;3.93;;;3.90;63.70;;;;;;5073484;28;36014;-75
2021/01/28 01:28:47;;;;;;;4.87;4.13;;;4.00;63.80;;;;;;5070867;28;39411;-75
2021/01/28 01:31:24;;;;;;;6.30;4.20;;;4.00;63.70;;;;;;5065828;28;38491;-75
2021/01/28 01:33:55;;;;;;;4.87;4.00;;;4.00;63.70;;;;;;5070392;28;38598;-75
2021/01/28 01:36:26;;;;;;;5.03;4.03;;;4.00;63.70;;;;;;5082298;28;37312;-75
2021/01/28 01:38:59;;;;;;;5.10;4.50;;;4.10;63.70;;;;;;5067066;28;38809;-75
2021/01/28 01:41:36;;;;;;;5.60;3.83;;;4.10;63.70;;;;;;5069446;28;37722;-76
2021/01/28 01:44:05;;;;;;;5.50;4.70;;;4.10;63.60;;;;;;5065360;28;37312;-75
2021/01/28 01:46:38;;;;;;;5.73;4.20;;;4.10;63.50;;;;;;5070592;28;36609;-76
2021/01/28 01:49:15;;;;;;;5.67;4.80;;;4.10;63.40;;;;;;5069673;28;38447;-75
2021/01/28 01:51:43;;;;;;;5.40;4.20;;;4.10;63.30;;;;;;5066489;28;38644;-75
2021/01/28 01:54:27;;;;;;;6.07;4.03;;;4.10;63.20;;;;;;5064471;28;37202;-77
2021/01/28 01:57:01;;;;;;;6.00;4.80;;;4.20;63.40;;;;;;5059478;28;37660;-75
2021/01/28 01:59:40;;;;;;;4.63;3.67;;;4.20;63.20;;;;;;5067800;28;39311;-75
2021/01/28 02:02:25;;;;;;;5.90;4.53;;;4.20;62.60;;;;;;5065690;28;39820;-76
2021/01/28 02:05:28;;;;;;;4.27;3.87;;;4.20;62.60;;;;;;5031633;28;38768;-75
2021/01/28 02:08:14;;;;;;;3.77;3.30;;;4.20;62.50;;;;;;5063428;28;38324;-76
2021/01/28 02:11:05;;;;;;;4.80;3.43;;;4.20;62.40;;;;;;5074288;28;40138;-76
2021/01/28 02:13:50;;;;;;;5.80;4.33;;;4.30;62.50;;;;;;5067867;28;40138;-76
2021/01/28 02:16:40;;;;;;;4.83;3.60;;;4.20;62.20;;;;;;5070071;28;38786;-75
2021/01/28 02:19:29;;;;;;;5.03;3.93;;;4.20;62.10;;;;;;5061414;28;36128;-75
2021/01/28 02:22:00;;;;;;;5.63;4.20;;;4.20;62.10;;;;;;5069130;28;38507;-75
2021/01/28 02:24:43;;;;;;;5.27;3.60;;;4.20;62.10;;;;;;5064279;28;38754;-75
2021/01/28 02:27:11;;;;;;;5.40;3.93;;;4.20;62.30;;;;;;5063210;28;37140;-75
2021/01/28 02:30:08;;;;;;;5.07;4.23;;;4.20;62.80;;;;;;5066971;28;36257;-76
2021/01/28 02:32:36;;;;;;;5.70;3.80;;;4.20;62.20;;;;;;5057400;28;39335;-75
2021/01/28 02:35:41;;;;;;;4.90;4.10;;;4.20;62.50;;;;;;5060724;28;38648;-76
2021/01/28 02:38:11;;;;;;;4.43;3.80;;;4.30;62.50;;;;;;5062834;28;38599;-76
2021/01/28 02:40:45;;;;;;;6.67;3.50;;;4.30;62.60;;;;;;5065479;28;35910;-76
2021/01/28 02:43:28;;;;;;;3.77;3.00;;;4.30;62.50;;;;;;5083575;28;39573;-76
2021/01/28 02:46:16;;;;;;;3.83;3.20;;;4.30;62.50;;;;;;5059464;28;40127;-76
2021/01/28 02:48:54;;;;;;;4.67;3.30;;;4.30;62.50;;;;;;5061445;28;37145;-75
2021/01/28 02:51:31;;;;;;;4.27;3.40;;;4.30;62.50;;;;;;5063613;28;36724;-76
2021/01/28 02:54:00;;;;;;;4.80;3.70;;;4.30;62.50;;;;;;5063572;28;39073;-76
2021/01/28 02:56:29;;;;;;;4.50;3.43;;;4.30;62.50;;;;;;5055103;28;37951;-76
2021/01/28 02:59:04;;;;;;;4.17;3.77;;;4.30;62.50;;;;;;5067280;28;38305;-76
2021/01/28 03:01:37;;;;;;;6.00;4.00;;;4.30;62.70;;;;;;5064781;28;35779;-76
2021/01/28 03:04:08;;;;;;;4.90;3.10;;;4.30;62.70;;;;;;5069839;28;39553;-75
2021/01/28 03:06:41;;;;;;;4.73;3.43;;;4.30;62.70;;;;;;5065784;28;37914;-75
2021/01/28 03:09:09;;;;;;;4.93;3.90;;;4.30;62.80;;;;;;5062950;28;37519;-76
2021/01/28 03:12:06;;;;;;;5.50;3.97;;;4.30;62.80;;;;;;5054793;28;37316;-76
2021/01/28 03:14:48;;;;;;;5.83;3.90;;;4.40;63.00;;;;;;5070232;28;38279;-75
2021/01/28 03:17:15;;;;;;;4.20;3.80;;;4.40;62.80;;;;;;5086223;28;39181;-75
2021/01/28 03:19:49;;;;;;;5.60;4.20;;;4.40;62.80;;;;;;5076168;28;38456;-75
2021/01/28 03:22:18;;;;;;;3.50;3.20;;;4.40;62.70;;;;;;5068978;28;35880;-75
2021/01/28 03:24:49;;;;;;;5.33;3.20;;;4.50;62.60;;;;;;5071727;28;38788;-75
2021/01/28 03:27:18;;;;;;;3.60;3.13;;;4.50;62.70;;;;;;5071944;28;38636;-75
2021/01/28 03:29:52;;;;;;;4.80;3.70;;;4.50;62.40;;;;;;5070726;28;38162;-75
2021/01/28 03:32:19;;;;;;;3.90;3.50;;;4.60;62.60;;;;;;5066171;28;37188;-75
2021/01/28 03:34:48;;;;;;;5.03;3.80;;;4.60;62.50;;;;;;5070833;28;39212;-75
2021/01/28 03:37:17;;;;;;;5.77;3.50;;;4.60;62.50;;;;;;5062029;28;39409;-75
2021/01/28 03:39:51;;;;;;;4.30;3.00;;;4.70;62.50;;;;;;5073075;28;37413;-75
2021/01/28 03:42:19;;;;;;;4.07;3.30;;;4.70;62.20;;;;;;5070601;28;35782;-75
2021/01/28 03:44:47;;;;;;;3.80;3.03;;;4.70;62.20;;;;;;5069020;28;39379;-75
2021/01/28 03:47:14;;;;;;;3.87;2.83;;;4.60;62.20;;;;;;5068559;28;38062;-75
2021/01/28 03:50:01;;;;;;;5.30;3.80;;;4.60;62.40;;;;;;5068574;28;39036;-74
2021/01/28 03:52:29;;;;;;;3.50;2.93;;;4.70;62.60;;;;;;5076675;28;37494;-75
2021/01/28 03:55:17;;;;;;;3.97;3.57;;;4.70;62.50;;;;;;5057283;28;39682;-75
2021/01/28 03:57:46;;;;;;;4.23;3.47;;;4.70;62.50;;;;;;5062094;28;38361;-75
2021/01/28 04:00:18;;;;;;;4.10;3.37;;;4.60;62.50;;;;;;5085312;28;37876;-75
2021/01/28 04:02:55;;;;;;;3.80;3.07;;;4.60;62.50;;;;;;5066973;28;35845;-75
2021/01/28 04:05:34;;;;;;;3.20;2.80;;;4.70;62.50;;;;;;5073823;28;39944;-75
2021/01/28 04:08:40;;;;;;;4.30;3.47;;;4.70;62.50;;;;;;5029185;28;39642;-75
2021/01/28 04:11:32;;;;;;;3.50;3.00;;;4.60;62.40;;;;;;5065313;28;37902;-75
2021/01/28 04:14:11;;;;;;;3.50;3.00;;;4.60;62.50;;;;;;5061419;28;35949;-75
2021/01/28 04:16:38;;;;;;;3.77;3.20;;;4.60;62.50;;;;;;5057554;28;40053;-75
2021/01/28 04:19:08;;;;;;;6.23;3.97;;;4.60;62.50;;;;;;5057694;28;37916;-75
2021/01/28 04:21:42;;;;;;;4.33;3.93;;;4.60;62.50;;;;;;5066906;28;37928;-75
2021/01/28 04:24:09;;;;;;;4.60;3.57;;;4.70;62.60;;;;;;5069849;28;36063;-76
2021/01/28 04:26:54;;;;;;;4.37;3.30;;;4.70;63.00;;;;;;5060181;28;39117;-76
2021/01/28 04:29:36;;;;;;;5.77;2.90;;;4.70;63.30;;;;;;5068296;28;39252;-76
2021/01/28 04:32:09;;;;;;;7.13;3.50;;;4.70;63.30;;;;;;5065454;28;36886;-76
2021/01/28 04:34:54;;;;;;;6.13;3.10;;;4.70;63.40;;;;;;5064723;28;35550;-77
2021/01/28 04:37:22;;;;;;;3.80;3.00;;;4.70;63.40;;;;;;5066677;28;39027;-76
2021/01/28 04:40:03;;;;;;;2.80;2.23;;;4.70;63.20;;;;;;5061469;28;39100;-76
2021/01/28 04:42:41;;;;;;;8.93;2.60;;;4.80;63.40;;;;;;5065237;28;38439;-76
2021/01/28 04:45:11;;;;;;;5.33;2.10;;;4.80;63.20;;;;;;5058941;28;35829;-75
2021/01/28 04:47:48;;;;;;;2.17;1.57;;;4.80;63.20;;;;;;5070954;28;38381;-75
2021/01/28 04:50:49;;;;;;;2.23;1.50;;;4.80;63.30;;;;;;5043071;28;39696;-76
2021/01/28 04:53:31;;;;;;;3.00;2.27;;;4.80;63.00;;;;;;5057803;28;37052;-76
2021/01/28 04:56:14;;;;;;;3.27;2.60;;;4.80;63.30;;;;;;5068079;28;36151;-75
2021/01/28 04:58:51;;;;;;;4.40;3.40;;;4.80;63.20;;;;;;5066244;28;38690;-76
2021/01/28 05:01:28;;;;;;;3.60;3.30;;;4.80;63.00;;;;;;5066362;28;38828;-75
2021/01/28 05:04:36;;;;;;;5.20;3.40;;;4.80;63.10;;;;;;5067914;28;38949;-76
2021/01/28 05:07:14;;;;;;;4.50;2.83;;;4.80;62.90;;;;;;5062662;28;36426;-75
2021/01/28 05:10:10;;;;;;;3.23;2.70;;;4.80;62.70;;;;;;5054358;28;40304;-76
2021/01/28 05:13:09;;;;;;;4.40;3.30;;;4.90;62.70;;;;;;5047981;28;40088;-75
2021/01/28 05:16:23;;;;;;;4.30;3.20;;;4.90;62.70;;;;;;5064272;28;37925;-75
2021/01/28 05:19:11;;;;;;;3.93;3.37;;;4.80;62.50;;;;;;5064915;28;38158;-76
2021/01/28 05:22:16;;;;;;;4.70;3.80;;;4.80;62.50;;;;;;5069455;28;38499;-76
2021/01/28 05:25:00;;;;;;;6.40;3.40;;;4.90;62.70;;;;;;5066489;28;37918;-75
2021/01/28 05:27:34;;;;;;;3.90;3.33;;;4.90;62.40;;;;;;5066461;28;38426;-76
2021/01/28 05:30:13;;;;;;;6.20;4.50;;;4.80;62.30;;;;;;5071743;28;35904;-76
2021/01/28 05:32:42;;;;;;;6.50;4.27;;;4.90;62.50;;;;;;5061099;28;38294;-75
2021/01/28 05:35:29;;;;;;;6.60;4.67;;;4.80;62.20;;;;;;5072370;28;39135;-75
2021/01/28 05:38:10;;;;;;;7.90;6.30;;;4.80;62.60;;;;;;5071250;28;37997;-75
2021/01/28 05:40:57;;;;;;;8.43;6.27;;;4.80;62.60;;;;;;5061576;28;35769;-75
2021/01/28 05:43:33;;;;;;;5.97;5.30;;;4.70;62.50;;;;;;5057358;28;20529;-76
2021/01/28 05:46:14;;;;;;;6.50;4.50;;;4.60;62.50;;;;;;5068090;28;39747;-76
2021/01/28 05:49:07;;;;;;;6.10;4.50;;;4.50;62.50;;;;;;5066499;28;38923;-76
2021/01/28 05:51:55;;;;;;;6.80;5.03;;;4.60;62.50;;;;;;5063452;28;35894;-76
2021/01/28 05:55:04;;;;;;;7.40;5.17;;;4.70;62.50;;;;;;5063511;28;39429;-76
2021/01/28 05:57:46;;;;;;;7.53;5.67;;;4.80;62.60;;;;;;5062598;28;38463;-76
2021/01/28 06:00:22;;;;;;;8.00;5.33;;;4.80;62.70;;;;;;5067500;28;37128;-76
2021/01/28 06:03:22;;;;;;;9.03;6.20;;;4.70;62.50;;;;;;5062445;28;36131;-75
2021/01/28 06:06:21;;;;;;;9.13;6.70;;;4.80;62.60;;;;;;5061742;28;40606;-75
2021/01/28 06:09:14;;;;;;;11.10;6.77;;;4.70;62.50;;;;;;5064581;28;38088;-75
2021/01/28 06:12:10;;;;;;;9.00;6.83;;;4.70;62.80;;;;;;5059718;28;37940;-75
2021/01/28 06:15:11;;;;;;;16.80;7.10;;;4.60;62.90;;;;;;5033344;28;37723;-75
2021/01/28 06:18:23;;;;;;;8.03;6.50;;;4.60;63.20;;;;;;5063082;28;38996;-75
2021/01/28 06:21:42;;;;;;;13.23;6.53;;;4.50;63.40;;;;;;5063727;28;40144;-76
2021/01/28 06:25:09;;;;;;;10.60;6.50;;;4.50;63.50;;;;;;5058039;28;38350;-76
2021/01/28 06:28:06;;;;;;;8.30;6.53;;;4.40;63.70;;;;;;4990685;28;36605;-78
2021/01/28 06:30:38;;;;;;;9.57;6.47;;;4.40;64.10;;;;;;5066990;28;38548;-77
2021/01/28 06:33:41;;;;;;;11.13;7.20;;;4.40;64.30;;;;;;5060646;28;37689;-77
2021/01/28 06:36:46;;;;;;;8.63;7.60;;;4.40;64.40;;;;;;5063941;28;38704;-77
2021/01/28 06:39:38;;;;;;;13.47;8.40;;;4.40;64.60;;;;;;5068996;28;36510;-77
2021/01/28 06:42:28;;;;;;;10.77;7.80;;;4.40;64.80;;;;;;5066790;28;38763;-77
2021/01/28 06:45:13;;;;;;;12.77;7.80;;;4.40;65.00;;;;;;5068686;28;38579;-78
2021/01/28 06:48:09;;;;;;;12.30;8.00;;;4.40;65.00;;;;;;5075580;28;39110;-77
2021/01/28 06:50:52;;;;;;;10.20;7.87;;;4.40;65.30;;;;;;5092670;28;35847;-78
2021/01/28 06:53:29;;;;;;;9.73;7.53;;;4.40;65.60;;;;;;5074878;28;39819;-77
2021/01/28 06:56:28;;;;;;;10.97;7.60;;;4.40;65.70;;;;;;5075011;28;39712;-77
2021/01/28 06:59:13;;;;;;;13.30;8.00;;;4.40;65.80;;;;;;5092219;28;37902;-77
2021/01/28 07:01:55;;;;;;;11.80;7.80;;;4.40;65.80;;;;;;5075481;28;36241;-77
2021/01/28 07:04:48;;;;;;;9.97;7.60;;;4.40;66.00;;;;;;5076250;28;40086;-77
2021/01/28 07:07:23;;;;;;;11.00;7.17;;;4.30;66.60;;;;;;5078782;28;37854;-82
2021/01/28 07:10:16;;;;;;;15.03;8.70;;;4.40;66.40;;;;;;5078992;28;39123;-82
2021/01/28 07:13:08;;;;;;;11.13;8.00;;;4.40;66.60;;;;;;5080941;28;37058;-82
2021/01/28 07:15:59;;;;;;;12.60;7.43;;;4.40;66.60;;;;;;5067888;28;40569;-85
2021/01/28 07:18:37;;;;;;;11.67;8.20;;;4.40;66.60;;;;;;5073826;28;37965;-82
2021/01/28 07:21:06;;;;;;;15.00;8.43;;;4.40;66.70;;;;;;5077677;28;38445;-82
2021/01/28 07:23:38;;;;;;;10.00;8.27;;;4.40;67.00;;;;;;5075834;28;35956;-83
2021/01/28 07:26:12;;;;;;;14.10;9.20;;;4.40;67.00;;;;;;5067991;28;38668;-82
2021/01/28 07:28:41;;;;;;;13.53;8.57;;;4.40;67.30;;;;;;5066060;28;39909;-83
2021/01/28 07:31:37;;;;;;;15.33;9.87;;;4.50;67.40;;;;;;5074408;28;37653;-83
2021/01/28 07:34:12;;;;;;;13.80;9.40;;;4.50;67.30;;;;;;5070721;28;37448;-83
2021/01/28 07:37:26;;;;;;;12.60;8.63;;;4.50;67.60;;;;;;5087171;28;38871;-83
2021/01/28 07:40:12;;;;;;;12.50;8.67;;;4.50;67.70;;;;;;5065426;28;40166;-83
2021/01/28 07:43:05;;;;;;;12.03;8.50;;;4.50;67.70;;;;;;5064281;28;37008;-83
2021/01/28 07:45:38;;;;;;;13.90;9.93;;;4.60;68.30;;;;;;5063718;28;37985;-83
2021/01/28 07:48:27;;;;;;;18.20;9.77;;;4.60;67.90;;;;;;5075692;28;39226;-82
2021/01/28 07:51:34;;;;;;;20.87;10.40;;;4.60;68.00;;;;;;5073947;28;38209;-82
2021/01/28 07:54:02;;;;;;;17.30;10.80;;;4.60;68.00;;;;;;5064205;28;39030;-83
2021/01/28 07:56:49;;;;;;;19.60;12.70;;;4.60;68.80;;;;;;5064277;28;37198;-83
2021/01/28 07:59:29;;;;;;;22.40;12.20;;;4.60;68.30;;;;;;5076900;28;38688;-84
2021/01/28 08:02:04;;;;;;;20.33;11.47;;;4.60;68.50;;;;;;5065693;28;39923;-83
2021/01/28 08:04:35;;;;;;;23.30;10.93;;;4.70;68.50;;;;;;5066827;28;38853;-83
2021/01/28 08:07:06;;;;;;;19.33;11.10;;;4.70;68.60;;;;;;5061123;28;37450;-82
2021/01/28 08:09:45;;;;;;;28.70;12.60;;;4.70;68.80;;;;;;5066940;28;39639;-82
2021/01/28 08:12:13;;;;;;;21.67;12.93;;;4.60;68.70;;;;;;5067293;28;39302;-84
2021/01/28 08:14:44;;;;;;;21.57;14.07;;;4.70;69.00;;;;;;5077962;28;37309;-83
2021/01/28 08:17:17;;;;;;;21.80;14.30;;;4.70;69.10;;;;;;5067700;28;38172;-83
2021/01/28 08:19:44;;;;;;;18.77;12.47;;;4.70;69.30;;;;;;5067098;28;40163;-83
2021/01/28 08:22:19;;;;;;;21.60;13.03;;;4.80;69.70;;;;;;5069659;28;38621;-83
2021/01/28 08:24:57;;;;;;;18.53;12.80;;;4.80;69.60;;;;;;5069702;28;38725;-83
2021/01/28 08:27:31;;;;;;;29.90;14.53;;;4.80;69.80;;;;;;5068934;28;36804;-81
2021/01/28 08:30:18;;;;;;;21.30;13.63;;;4.80;69.80;;;;;;5065884;28;39832;-84
2021/01/28 08:32:46;;;;;;;22.43;13.40;;;4.80;69.50;;;;;;5059747;28;39422;-84
2021/01/28 08:35:17;;;;;;;22.57;13.00;;;4.80;69.80;;;;;;5069013;28;37563;-83
2021/01/28 08:37:47;;;;;;;25.53;14.90;;;4.80;70.00;;;;;;5063180;28;37556;-85
2021/01/28 08:40:17;;;;;;;21.10;12.63;;;4.70;69.90;;;;;;5072174;28;38470;-84
2021/01/28 08:42:44;;;;;;;23.13;12.23;;;4.70;69.90;;;;;;5061030;28;39677;-84
2021/01/28 08:45:17;;;;;;;26.40;14.13;;;4.80;70.10;;;;;;5067520;28;39512;-83
2021/01/28 08:47:57;;;;;;;20.77;12.03;;;4.80;70.00;;;;;;5071922;28;36264;-83
2021/01/28 08:50:27;;;;;;;19.70;12.20;;;4.80;70.00;;;;;;5061084;28;39969;-84
2021/01/28 08:53:01;;;;;;;21.90;12.73;;;4.80;70.30;;;;;;5070296;28;38062;-84
2021/01/28 08:55:32;;;;;;;21.03;13.30;;;4.80;70.50;;;;;;5058098;28;39209;-84
2021/01/28 08:58:06;;;;;;;20.17;12.23;;;4.90;70.70;;;;;;5069936;28;37406;-83
2021/01/28 09:00:34;;;;;;;17.50;13.10;;;4.90;70.90;;;;;;5058963;28;40371;-83
2021/01/28 09:03:03;;;;;;;22.33;13.27;;;5.00;71.10;;;;;;5066053;28;38302;-83
2021/01/28 09:05:32;;;;;;;25.83;14.80;;;5.00;71.20;;;;;;5066069;28;38908;-83
2021/01/28 09:08:08;;;;;;;22.37;13.83;;;5.00;71.20;;;;;;5067634;28;37642;-83
2021/01/28 09:10:40;;;;;;;21.00;14.00;;;4.90;71.00;;;;;;5069720;28;40055;-84
2021/01/28 09:13:12;;;;;;;21.70;13.10;;;4.90;71.00;;;;;;5071879;28;38198;-84
2021/01/28 09:15:41;;;;;;;27.67;15.43;;;5.00;71.20;;;;;;5075737;28;39013;-84
2021/01/28 09:18:15;;;;;;;25.60;15.43;;;5.00;71.20;;;;;;5082121;28;37943;-83
2021/01/28 09:20:43;;;;;;;23.20;14.30;;;5.10;71.30;;;;;;5074914;28;39321;-85
2021/01/28 09:23:13;;;;;;;22.60;12.97;;;5.10;71.30;;;;;;5072715;28;38799;-84
2021/01/28 09:25:44;;;;;;;27.03;16.20;;;5.10;71.30;;;;;;5055255;28;38806;-84
2021/01/28 09:28:14;;;;;;;24.40;15.07;;;5.10;71.30;;;;;;5070174;28;36157;-84
2021/01/28 09:30:44;;;;;;;24.57;14.03;;;5.20;71.40;;;;;;5071663;28;39784;-84
2021/01/28 09:33:32;;;;;;;23.93;13.60;;;5.20;71.40;;;;;;5073695;28;38527;-83
2021/01/28 09:36:02;;;;;;;23.83;12.97;;;5.10;71.30;;;;;;5084571;28;37480;-83
2021/01/28 09:38:31;;;;;;;24.43;13.80;;;5.10;71.40;;;;;;5064709;28;37563;-83
2021/01/28 09:41:17;;;;;;;21.70;12.53;;;5.10;71.10;;;;;;5066074;28;38931;-84
2021/01/28 09:43:45;;;;;;;18.40;12.20;;;5.10;71.30;;;;;;5080168;28;37883;-83
2021/01/28 09:46:27;;;;;;;20.03;12.63;;;5.10;71.30;;;;;;5063022;28;39562;-83
2021/01/28 09:48:58;;;;;;;19.57;12.77;;;5.20;71.40;;;;;;5063864;28;37526;-82
2021/01/28 09:51:35;;;;;;;18.27;12.87;;;5.20;71.80;;;;;;5067296;28;39766;-82
2021/01/28 09:54:14;;;;;;;20.17;13.23;;;5.40;72.30;;;;;;5067751;28;38825;-82
2021/01/28 09:56:42;;;;;;;17.70;12.20;;;5.50;72.30;;;;;;5066969;28;38638;-83
2021/01/28 09:59:11;;;;;;;18.60;11.97;;;5.50;72.60;;;;;;5068687;28;37225;-83
2021/01/28 10:01:38;;;;;;;17.57;12.23;;;5.60;72.60;;;;;;5066864;28;40657;-84
2021/01/28 10:04:08;;;;;;;16.87;10.70;;;5.50;71.90;;;;;;5061402;28;37918;-84
2021/01/28 10:06:39;;;;;;;19.63;11.30;;;5.50;72.30;;;;;;5065955;28;37236;-84
2021/01/28 10:09:08;;;;;;;22.40;11.67;;;5.50;72.40;;;;;;5067585;28;38524;-83
2021/01/28 10:11:35;;;;;;;19.40;12.97;;;5.50;72.20;;;;;;5066966;28;40095;-84
2021/01/28 10:14:03;;;;;;;20.40;12.00;;;5.50;71.90;;;;;;5070507;28;38457;-84
2021/01/28 10:16:31;;;;;;;17.97;12.37;;;5.50;71.80;;;;;;5067385;28;37991;-84
2021/01/28 10:19:02;;;;;;;19.70;11.57;;;5.60;71.80;;;;;;5065748;28;38009;-84
2021/01/28 10:21:29;;;;;;;15.47;10.40;;;5.50;71.70;;;;;;5068229;28;39424;-84
2021/01/28 10:23:56;;;;;;;19.37;11.10;;;5.50;71.90;;;;;;5063703;28;39960;-84
2021/01/28 10:26:24;;;;;;;17.30;10.37;;;5.60;71.80;;;;;;5068134;28;39711;-85
2021/01/28 10:28:51;;;;;;;18.30;10.43;;;5.50;71.70;;;;;;5068246;28;37353;-85
2021/01/28 10:31:18;;;;;;;19.00;11.00;;;5.60;71.80;;;;;;5067756;28;39376;-85
2021/01/28 10:33:47;;;;;;;18.90;12.07;;;5.60;71.80;;;;;;5065299;28;38790;-84
2021/01/28 10:36:16;;;;;;;15.73;11.13;;;5.50;71.70;;;;;;5069282;28;38545;-84
2021/01/28 10:38:43;;;;;;;18.17;10.50;;;5.50;71.70;;;;;;5071152;28;37955;-83
2021/01/28 10:41:13;;;;;;;30.20;15.67;;;5.50;72.20;;;;;;5068573;28;38604;-85
2021/01/28 10:43:43;;;;;;;22.07;14.77;;;5.60;71.80;;;;;;5069108;28;39776;-85
2021/01/28 10:46:11;;;;;;;21.17;14.60;;;5.60;71.80;;;;;;5063022;28;37363;-85
2021/01/28 10:48:38;;;;;;;17.13;10.30;;;5.70;71.90;;;;;;5081259;28;36432;-83
2021/01/28 10:51:09;;;;;;;14.63;10.07;;;5.60;71.70;;;;;;5062436;28;40536;-82
2021/01/28 10:53:42;;;;;;;11.43;9.33;;;5.60;71.80;;;;;;5070537;28;37956;-84
2021/01/28 10:56:10;;;;;;;13.47;9.60;;;5.70;71.90;;;;;;5067418;28;38225;-83
2021/01/28 10:58:37;;;;;;;12.20;8.70;;;5.80;72.00;;;;;;5071277;28;37638;-83
2021/01/28 11:01:05;;;;;;;11.00;8.10;;;5.80;72.50;;;;;;5071254;28;38778;-82
2021/01/28 11:03:35;;;;;;;11.37;6.43;;;5.90;72.60;;;;;;5070254;28;37922;-83
2021/01/28 11:06:02;;;;;;;8.13;6.40;;;6.00;72.80;;;;;;5067822;28;38792;-83
2021/01/28 11:08:30;;;;;;;7.80;5.50;;;6.10;73.10;;;;;;5066199;28;36107;-82
2021/01/28 11:10:57;;;;;;;7.80;5.37;;;6.20;73.10;;;;;;5060838;28;35392;-85
2021/01/28 11:13:25;;;;;;;4.43;4.00;;;6.20;73.20;;;;;;5063255;28;39639;-83
2021/01/28 11:15:54;;;;;;;5.03;3.97;;;6.30;73.30;;;;;;5069422;28;37175;-83
2021/01/28 11:18:30;;;;;;;5.57;4.60;;;6.40;73.50;;;;;;5066057;28;37396;-83
2021/01/28 11:20:58;;;;;;;4.00;3.60;;;6.60;73.70;;;;;;5068349;28;40205;-82
2021/01/28 11:23:25;;;;;;;3.90;3.50;;;6.70;73.70;;;;;;5064962;28;39018;-82
2021/01/28 11:25:52;;;;;;;4.70;2.43;;;6.80;72.80;;;;;;5067770;28;39014;-82
2021/01/28 11:28:19;;;;;;;4.40;2.93;;;6.90;72.90;;;;;;5065915;28;37729;-86
2021/01/28 11:30:49;;;;;;;6.03;2.67;;;7.00;73.00;;;;;;5068960;28;40522;-83
2021/01/28 11:33:20;;;;;;;4.33;2.60;;;7.10;73.10;;;;;;5072999;28;40034;-83
2021/01/28 11:35:47;;;;;;;3.30;2.60;;;7.20;72.80;;;;;;5071746;28;39220;-82
2021/01/28 11:38:14;;;;;;;2.30;2.10;;;7.20;72.50;;;;;;5073917;28;37322;-82
2021/01/28 11:40:41;;;;;;;2.50;2.30;;;7.20;72.70;;;;;;5074040;28;40608;-83
2021/01/28 11:43:08;;;;;;;2.70;2.37;;;7.20;72.50;;;;;;5071317;28;39565;-81
2021/01/28 11:45:36;;;;;;;3.17;2.07;;;7.20;72.60;;;;;;5070240;28;37416;-83
2021/01/28 11:48:04;;;;;;;5.47;2.37;;;7.30;72.90;;;;;;5069789;28;37391;-83
2021/01/28 11:50:32;;;;;;;5.03;2.20;;;7.40;73.10;;;;;;5077642;28;39261;-83
2021/01/28 11:53:00;;;;;;;2.93;2.20;;;7.60;73.50;;;;;;5073163;28;39574;-84
2021/01/28 11:55:28;;;;;;;3.30;2.73;;;7.70;73.60;;;;;;5068911;28;37366;-84
2021/01/28 11:57:56;;;;;;;3.03;2.50;;;7.90;73.30;;;;;;5069434;28;37320;-84
2021/01/28 12:00:25;;;;;;;3.63;2.07;;;8.00;73.30;;;;;;5074829;28;40577;-85
2021/01/28 12:02:58;;;;;;;2.37;2.07;;;8.00;72.10;;;;;;5080724;28;38921;-83
2021/01/28 12:05:27;;;;;;;6.23;2.57;;;8.00;71.20;;;;;;5073133;28;39021;-84
2021/01/28 12:07:55;;;;;;;2.03;1.80;;;8.10;71.30;;;;;;5070269;28;36801;-84
2021/01/28 12:10:28;;;;;;;2.30;1.90;;;8.10;71.10;;;;;;5067661;28;41164;-82
2021/01/28 12:13:00;;;;;;;5.40;2.30;;;8.10;71.20;;;;;;5071640;28;39004;-83
2021/01/28 12:15:28;;;;;;;3.50;1.90;;;8.10;71.20;;;;;;5072991;28;41378;-82
2021/01/28 12:17:56;;;;;;;2.73;1.83;;;8.20;70.80;;;;;;5080418;28;36043;-83
2021/01/28 12:20:26;;;;;;;3.50;1.80;;;8.20;70.50;;;;;;5071653;28;40038;-84
2021/01/28 12:22:53;;;;;;;2.90;1.70;;;8.30;71.00;;;;;;5077013;28;40198;-85
2021/01/28 12:25:21;;;;;;;2.50;1.80;;;8.40;71.10;;;;;;5072861;28;37300;-84
2021/01/28 12:27:48;;;;;;;2.30;1.40;;;8.50;70.70;;;;;;5069991;28;37724;-84
2021/01/28 12:30:18;;;;;;;3.00;1.47;;;8.50;70.50;;;;;;5068083;28;39787;-85
2021/01/28 12:32:46;;;;;;;1.80;1.27;;;8.60;70.10;;;;;;5061087;28;40058;-85
2021/01/28 12:35:13;;;;;;;2.40;1.23;;;8.70;70.00;;;;;;5065842;28;36544;-83
2021/01/28 12:37:40;;;;;;;1.90;1.27;;;8.80;69.60;;;;;;5067259;28;37871;-83
2021/01/28 12:40:19;;;;;;;2.10;1.20;;;8.80;69.60;;;;;;5066716;28;38832;-84
2021/01/28 12:42:46;;;;;;;1.47;1.07;;;8.90;69.40;;;;;;5086999;28;37866;-84
2021/01/28 12:45:18;;;;;;;1.60;1.07;;;8.90;69.20;;;;;;5080516;28;37315;-83
2021/01/28 12:47:48;;;;;;;0.90;0.73;;;9.00;69.10;;;;;;5085874;28;36801;-84
2021/01/28 12:50:19;;;;;;;0.80;0.70;;;9.10;69.20;;;;;;5075453;28;38413;-85
2021/01/28 12:52:47;;;;;;;1.97;0.87;;;9.20;68.70;;;;;;5072187;28;37976;-84
2021/01/28 12:55:15;;;;;;;2.33;1.20;;;9.20;68.30;;;;;;5068373;28;39309;-83
2021/01/28 12:57:42;;;;;;;1.43;1.10;;;9.30;68.30;;;;;;5076728;28;36844;-84
2021/01/28 13:00:14;;;;;;;1.10;1.00;;;9.40;68.30;;;;;;5065300;28;38418;-83
2021/01/28 13:02:42;;;;;;;1.00;0.80;;;9.60;68.20;;;;;;5060916;28;37699;-84
2021/01/28 13:05:10;;;;;;;1.33;1.00;;;9.70;67.40;;;;;;5072593;28;38930;-85
2021/01/28 13:07:37;;;;;;;1.20;0.70;;;9.70;66.90;;;;;;5069513;28;36537;-83
2021/01/28 13:10:09;;;;;;;0.90;0.70;;;9.80;67.00;;;;;;5067403;28;38804;-85
2021/01/28 13:12:36;;;;;;;1.00;0.90;;;10.00;66.20;;;;;;5064687;28;41237;-83
2021/01/28 13:15:07;;;;;;;1.73;0.73;;;10.20;65.90;;;;;;5072156;28;38623;-84
2021/01/28 13:17:34;;;;;;;3.50;1.77;;;10.60;65.10;;;;;;5065541;28;36387;-84
2021/01/28 13:20:04;;;;;;;0.80;0.60;;;10.80;63.80;;;;;;5063740;28;39683;-83
2021/01/28 13:22:31;;;;;;;1.00;0.60;;;10.90;63.40;;;;;;5072211;28;38860;-84
2021/01/28 13:25:00;;;;;;;0.70;0.50;;;11.10;62.30;;;;;;5066212;28;38354;-83
2021/01/28 13:27:28;;;;;;;0.70;0.50;;;11.00;61.70;;;;;;5067317;28;37013;-84
2021/01/28 13:29:58;;;;;;;2.20;1.40;;;10.90;62.00;;;;;;5067892;28;39559;-84
2021/01/28 13:32:25;;;;;;;0.70;0.50;;;10.90;62.20;;;;;;5061233;28;40104;-83
2021/01/28 13:34:52;;;;;;;1.13;0.60;;;10.90;62.20;;;;;;5067861;28;38961;-84